sensor_id;sensor_type;location;lat;lon;timestamp;P1;durP1;ratioP1;P2;durP2;ratioP2
19312;SDS011;9791;50.820;4.406;2022-11-11T00:00:20;10.48;;;6.47;;
19312;SDS011;9791;50.820;4.406;2022-11-11T00:02:47;12.18;;;7.55;;
19312;SDS011;9791;50.820;4.406;2022-11-11T00:05:14;12.00;;;7.68;;
19312;SDS011;9791;50.820;4.406;2022-11-11T00:07:40;12.65;;;7.22;;
19312;SDS011;9791;50.820;4.406;2022-11-11T00:10:06;11.50;;;6.50;;
19312;SDS011;9791;50.820;4.406;2022-11-11T00:12:32;12.43;;;6.88;;
19312;SDS011;9791;50.820;4.406;2022-11-11T00:14:58;10.63;;;6.32;;
19312;SDS011;9791;50.820;4.406;2022-11-11T00:17:24;13.88;;;7.13;;
19312;SDS011;9791;50.820;4.406;2022-11-11T00:20:09;11.07;;;6.25;;
19312;SDS011;9791;50.820;4.406;2022-11-11T00:22:54;9.60;;;6.35;;
19312;SDS011;9791;50.820;4.406;2022-11-11T00:25:39;9.30;;;5.80;;
19312;SDS011;9791;50.820;4.406;2022-11-11T00:28:05;13.23;;;6.82;;
19312;SDS011;9791;50.820;4.406;2022-11-11T00:30:31;13.15;;;6.25;;
19312;SDS011;9791;50.820;4.406;2022-11-11T00:32:57;14.73;;;7.13;;
19312;SDS011;9791;50.820;4.406;2022-11-11T00:35:23;12.68;;;7.00;;
19312;SDS011;9791;50.820;4.406;2022-11-11T00:38:08;15.88;;;7.35;;
19312;SDS011;9791;50.820;4.406;2022-11-11T00:40:34;12.73;;;6.53;;
19312;SDS011;9791;50.820;4.406;2022-11-11T00:43:00;12.30;;;7.63;;
19312;SDS011;9791;50.820;4.406;2022-11-11T00:45:26;11.82;;;7.55;;
19312;SDS011;9791;50.820;4.406;2022-11-11T00:47:52;15.80;;;8.02;;
19312;SDS011;9791;50.820;4.406;2022-11-11T00:50:37;13.43;;;7.38;;
19312;SDS011;9791;50.820;4.406;2022-11-11T00:53:27;19.10;;;8.25;;
19312;SDS011;9791;50.820;4.406;2022-11-11T00:55:54;13.10;;;7.80;;
19312;SDS011;9791;50.820;4.406;2022-11-11T00:58:20;14.73;;;7.63;;
19312;SDS011;9791;50.820;4.406;2022-11-11T01:00:47;15.13;;;7.93;;
19312;SDS011;9791;50.820;4.406;2022-11-11T01:03:17;13.55;;;8.20;;
19312;SDS011;9791;50.820;4.406;2022-11-11T01:05:43;16.38;;;8.32;;
19312;SDS011;9791;50.820;4.406;2022-11-11T01:08:09;11.65;;;7.93;;
19312;SDS011;9791;50.820;4.406;2022-11-11T01:10:36;13.00;;;8.13;;
19312;SDS011;9791;50.820;4.406;2022-11-11T01:13:02;14.73;;;7.50;;
19312;SDS011;9791;50.820;4.406;2022-11-11T01:15:40;12.30;;;7.55;;
19312;SDS011;9791;50.820;4.406;2022-11-11T01:18:07;13.90;;;7.90;;
19312;SDS011;9791;50.820;4.406;2022-11-11T01:20:34;11.65;;;7.28;;
19312;SDS011;9791;50.820;4.406;2022-11-11T01:23:01;13.13;;;7.93;;
19312;SDS011;9791;50.820;4.406;2022-11-11T01:25:27;12.40;;;6.65;;
19312;SDS011;9791;50.820;4.406;2022-11-11T01:27:53;12.68;;;7.45;;
19312;SDS011;9791;50.820;4.406;2022-11-11T01:30:19;13.93;;;7.30;;
19312;SDS011;9791;50.820;4.406;2022-11-11T01:32:45;13.25;;;7.65;;
19312;SDS011;9791;50.820;4.406;2022-11-11T01:35:11;11.02;;;7.45;;
19312;SDS011;9791;50.820;4.406;2022-11-11T01:37:37;16.85;;;7.15;;
19312;SDS011;9791;50.820;4.406;2022-11-11T01:40:03;13.82;;;7.22;;
19312;SDS011;9791;50.820;4.406;2022-11-11T01:42:29;18.52;;;7.28;;
19312;SDS011;9791;50.820;4.406;2022-11-11T01:44:55;12.70;;;6.75;;
19312;SDS011;9791;50.820;4.406;2022-11-11T01:47:21;9.27;;;6.90;;
19312;SDS011;9791;50.820;4.406;2022-11-11T01:50:07;11.23;;;6.43;;
19312;SDS011;9791;50.820;4.406;2022-11-11T01:52:37;10.55;;;6.05;;
19312;SDS011;9791;50.820;4.406;2022-11-11T01:55:06;11.02;;;6.18;;
19312;SDS011;9791;50.820;4.406;2022-11-11T01:57:35;12.10;;;6.03;;
19312;SDS011;9791;50.820;4.406;2022-11-11T02:00:04;9.18;;;5.57;;
19312;SDS011;9791;50.820;4.406;2022-11-11T02:05:26;11.55;;;5.60;;
19312;SDS011;9791;50.820;4.406;2022-11-11T02:08:14;10.18;;;5.88;;
19312;SDS011;9791;50.820;4.406;2022-11-11T02:10:56;9.85;;;5.85;;
19312;SDS011;9791;50.820;4.406;2022-11-11T02:13:23;15.30;;;6.60;;
19312;SDS011;9791;50.820;4.406;2022-11-11T02:16:08;13.45;;;6.45;;
19312;SDS011;9791;50.820;4.406;2022-11-11T02:18:34;8.70;;;6.05;;
19312;SDS011;9791;50.820;4.406;2022-11-11T02:21:00;10.63;;;5.97;;
19312;SDS011;9791;50.820;4.406;2022-11-11T02:23:27;12.55;;;5.97;;
19312;SDS011;9791;50.820;4.406;2022-11-11T02:25:55;12.25;;;6.35;;
19312;SDS011;9791;50.820;4.406;2022-11-11T02:28:23;10.95;;;7.07;;
19312;SDS011;9791;50.820;4.406;2022-11-11T02:30:50;9.30;;;5.97;;
19312;SDS011;9791;50.820;4.406;2022-11-11T02:33:16;12.27;;;6.40;;
19312;SDS011;9791;50.820;4.406;2022-11-11T02:35:43;11.25;;;5.80;;
19312;SDS011;9791;50.820;4.406;2022-11-11T02:38:10;14.68;;;6.75;;
19312;SDS011;9791;50.820;4.406;2022-11-11T02:40:40;14.63;;;6.63;;
19312;SDS011;9791;50.820;4.406;2022-11-11T02:43:26;10.93;;;7.00;;
19312;SDS011;9791;50.820;4.406;2022-11-11T02:45:52;12.13;;;7.43;;
19312;SDS011;9791;50.820;4.406;2022-11-11T02:48:18;12.23;;;6.80;;
19312;SDS011;9791;50.820;4.406;2022-11-11T02:50:44;12.10;;;6.10;;
19312;SDS011;9791;50.820;4.406;2022-11-11T02:53:10;10.75;;;5.78;;
19312;SDS011;9791;50.820;4.406;2022-11-11T02:55:36;9.40;;;6.30;;
19312;SDS011;9791;50.820;4.406;2022-11-11T02:58:02;11.93;;;6.53;;
19312;SDS011;9791;50.820;4.406;2022-11-11T03:00:28;13.75;;;7.13;;
19312;SDS011;9791;50.820;4.406;2022-11-11T03:02:54;10.20;;;6.05;;
19312;SDS011;9791;50.820;4.406;2022-11-11T03:05:20;9.57;;;6.00;;
19312;SDS011;9791;50.820;4.406;2022-11-11T03:07:46;15.95;;;7.22;;
19312;SDS011;9791;50.820;4.406;2022-11-11T03:10:12;13.88;;;7.00;;
19312;SDS011;9791;50.820;4.406;2022-11-11T03:12:38;10.40;;;6.85;;
19312;SDS011;9791;50.820;4.406;2022-11-11T03:15:04;13.38;;;6.55;;
19312;SDS011;9791;50.820;4.406;2022-11-11T03:17:31;10.77;;;7.20;;
19312;SDS011;9791;50.820;4.406;2022-11-11T03:23:00;11.40;;;6.63;;
19312;SDS011;9791;50.820;4.406;2022-11-11T03:25:26;14.15;;;7.57;;
19312;SDS011;9791;50.820;4.406;2022-11-11T03:28:05;11.85;;;6.28;;
19312;SDS011;9791;50.820;4.406;2022-11-11T03:30:31;11.73;;;6.32;;
19312;SDS011;9791;50.820;4.406;2022-11-11T03:32:58;12.40;;;6.25;;
19312;SDS011;9791;50.820;4.406;2022-11-11T03:35:24;11.95;;;6.25;;
19312;SDS011;9791;50.820;4.406;2022-11-11T03:37:50;10.65;;;6.18;;
19312;SDS011;9791;50.820;4.406;2022-11-11T03:40:35;9.50;;;5.88;;
19312;SDS011;9791;50.820;4.406;2022-11-11T03:43:01;9.15;;;5.28;;
19312;SDS011;9791;50.820;4.406;2022-11-11T03:45:27;10.77;;;5.63;;
19312;SDS011;9791;50.820;4.406;2022-11-11T03:47:53;11.63;;;6.18;;
19312;SDS011;9791;50.820;4.406;2022-11-11T03:50:19;11.05;;;6.00;;
19312;SDS011;9791;50.820;4.406;2022-11-11T03:52:45;9.38;;;5.70;;
19312;SDS011;9791;50.820;4.406;2022-11-11T03:55:11;9.38;;;5.30;;
19312;SDS011;9791;50.820;4.406;2022-11-11T03:57:46;11.57;;;5.60;;
19312;SDS011;9791;50.820;4.406;2022-11-11T04:00:24;10.43;;;5.90;;
19312;SDS011;9791;50.820;4.406;2022-11-11T04:02:51;14.07;;;5.70;;
19312;SDS011;9791;50.820;4.406;2022-11-11T04:05:36;13.35;;;5.57;;
19312;SDS011;9791;50.820;4.406;2022-11-11T04:08:20;11.48;;;6.20;;
19312;SDS011;9791;50.820;4.406;2022-11-11T04:11:06;11.15;;;5.45;;
19312;SDS011;9791;50.820;4.406;2022-11-11T04:13:33;15.50;;;5.57;;
19312;SDS011;9791;50.820;4.406;2022-11-11T04:16:18;11.55;;;5.80;;
19312;SDS011;9791;50.820;4.406;2022-11-11T04:18:44;8.32;;;5.00;;
19312;SDS011;9791;50.820;4.406;2022-11-11T04:21:29;11.55;;;6.18;;
19312;SDS011;9791;50.820;4.406;2022-11-11T04:24:11;9.85;;;6.03;;
19312;SDS011;9791;50.820;4.406;2022-11-11T04:26:57;12.05;;;5.75;;
19312;SDS011;9791;50.820;4.406;2022-11-11T04:29:23;10.98;;;5.35;;
19312;SDS011;9791;50.820;4.406;2022-11-11T04:31:52;10.77;;;5.82;;
19312;SDS011;9791;50.820;4.406;2022-11-11T04:34:37;12.13;;;5.40;;
19312;SDS011;9791;50.820;4.406;2022-11-11T04:37:03;9.00;;;5.53;;
19312;SDS011;9791;50.820;4.406;2022-11-11T04:39:29;9.70;;;5.97;;
19312;SDS011;9791;50.820;4.406;2022-11-11T04:42:13;8.68;;;5.57;;
19312;SDS011;9791;50.820;4.406;2022-11-11T04:44:39;8.45;;;4.95;;
19312;SDS011;9791;50.820;4.406;2022-11-11T04:47:24;8.60;;;4.78;;
19312;SDS011;9791;50.820;4.406;2022-11-11T04:49:51;9.70;;;5.63;;
19312;SDS011;9791;50.820;4.406;2022-11-11T04:52:17;10.32;;;6.00;;
19312;SDS011;9791;50.820;4.406;2022-11-11T04:54:56;10.25;;;5.50;;
19312;SDS011;9791;50.820;4.406;2022-11-11T04:57:41;11.50;;;5.40;;
19312;SDS011;9791;50.820;4.406;2022-11-11T05:00:08;10.45;;;5.70;;
19312;SDS011;9791;50.820;4.406;2022-11-11T05:02:34;11.35;;;5.35;;
19312;SDS011;9791;50.820;4.406;2022-11-11T05:05:19;18.20;;;7.07;;
19312;SDS011;9791;50.820;4.406;2022-11-11T05:07:46;13.13;;;5.93;;
19312;SDS011;9791;50.820;4.406;2022-11-11T05:10:30;13.35;;;6.28;;
19312;SDS011;9791;50.820;4.406;2022-11-11T05:12:56;12.23;;;5.93;;
19312;SDS011;9791;50.820;4.406;2022-11-11T05:15:42;11.63;;;5.82;;
19312;SDS011;9791;50.820;4.406;2022-11-11T05:18:27;11.15;;;5.55;;
19312;SDS011;9791;50.820;4.406;2022-11-11T05:21:13;11.50;;;6.18;;
19312;SDS011;9791;50.820;4.406;2022-11-11T05:23:46;11.23;;;6.20;;
19312;SDS011;9791;50.820;4.406;2022-11-11T05:26:31;13.13;;;6.60;;
19312;SDS011;9791;50.820;4.406;2022-11-11T05:28:59;15.77;;;7.03;;
19312;SDS011;9791;50.820;4.406;2022-11-11T05:31:25;11.35;;;7.07;;
19312;SDS011;9791;50.820;4.406;2022-11-11T05:33:51;16.85;;;7.18;;
19312;SDS011;9791;50.820;4.406;2022-11-11T05:36:17;10.50;;;7.18;;
19312;SDS011;9791;50.820;4.406;2022-11-11T05:38:44;10.35;;;6.70;;
19312;SDS011;9791;50.820;4.406;2022-11-11T05:41:10;12.20;;;6.70;;
19312;SDS011;9791;50.820;4.406;2022-11-11T05:43:36;12.02;;;7.13;;
19312;SDS011;9791;50.820;4.406;2022-11-11T05:46:02;14.40;;;7.70;;
19312;SDS011;9791;50.820;4.406;2022-11-11T05:48:29;13.68;;;7.10;;
19312;SDS011;9791;50.820;4.406;2022-11-11T05:50:57;14.60;;;8.40;;
19312;SDS011;9791;50.820;4.406;2022-11-11T05:53:23;16.10;;;8.18;;
19312;SDS011;9791;50.820;4.406;2022-11-11T05:55:49;14.90;;;7.88;;
19312;SDS011;9791;50.820;4.406;2022-11-11T05:58:18;13.23;;;8.18;;
19312;SDS011;9791;50.820;4.406;2022-11-11T06:00:45;15.73;;;8.90;;
19312;SDS011;9791;50.820;4.406;2022-11-11T06:03:11;11.65;;;8.00;;
19312;SDS011;9791;50.820;4.406;2022-11-11T06:05:37;12.40;;;7.93;;
19312;SDS011;9791;50.820;4.406;2022-11-11T06:08:03;14.82;;;8.85;;
19312;SDS011;9791;50.820;4.406;2022-11-11T06:10:30;11.73;;;7.70;;
19312;SDS011;9791;50.820;4.406;2022-11-11T06:12:59;9.80;;;7.35;;
19312;SDS011;9791;50.820;4.406;2022-11-11T06:15:26;12.77;;;8.50;;
19312;SDS011;9791;50.820;4.406;2022-11-11T06:17:52;10.70;;;7.88;;
19312;SDS011;9791;50.820;4.406;2022-11-11T06:20:18;11.25;;;7.57;;
19312;SDS011;9791;50.820;4.406;2022-11-11T06:22:44;12.57;;;8.38;;
19312;SDS011;9791;50.820;4.406;2022-11-11T06:25:25;11.85;;;7.60;;
19312;SDS011;9791;50.820;4.406;2022-11-11T06:28:11;13.20;;;8.35;;
19312;SDS011;9791;50.820;4.406;2022-11-11T06:30:37;16.00;;;9.15;;
19312;SDS011;9791;50.820;4.406;2022-11-11T06:33:03;17.08;;;8.98;;
19312;SDS011;9791;50.820;4.406;2022-11-11T06:35:31;12.55;;;9.45;;
19312;SDS011;9791;50.820;4.406;2022-11-11T06:37:58;15.00;;;8.25;;
19312;SDS011;9791;50.820;4.406;2022-11-11T06:40:24;14.05;;;8.65;;
19312;SDS011;9791;50.820;4.406;2022-11-11T06:42:50;14.00;;;8.60;;
19312;SDS011;9791;50.820;4.406;2022-11-11T06:45:16;14.70;;;8.68;;
19312;SDS011;9791;50.820;4.406;2022-11-11T06:47:42;13.77;;;8.20;;
19312;SDS011;9791;50.820;4.406;2022-11-11T06:50:08;14.00;;;9.25;;
19312;SDS011;9791;50.820;4.406;2022-11-11T06:52:34;17.90;;;9.43;;
19312;SDS011;9791;50.820;4.406;2022-11-11T06:55:00;16.50;;;9.85;;
19312;SDS011;9791;50.820;4.406;2022-11-11T06:57:26;16.25;;;9.13;;
19312;SDS011;9791;50.820;4.406;2022-11-11T06:59:52;14.88;;;9.20;;
19312;SDS011;9791;50.820;4.406;2022-11-11T07:02:18;14.35;;;9.10;;
19312;SDS011;9791;50.820;4.406;2022-11-11T07:04:44;15.55;;;9.95;;
19312;SDS011;9791;50.820;4.406;2022-11-11T07:07:10;16.02;;;9.43;;
19312;SDS011;9791;50.820;4.406;2022-11-11T07:09:36;13.88;;;9.23;;
19312;SDS011;9791;50.820;4.406;2022-11-11T07:12:02;15.55;;;10.05;;
19312;SDS011;9791;50.820;4.406;2022-11-11T07:14:30;17.55;;;10.32;;
19312;SDS011;9791;50.820;4.406;2022-11-11T07:16:57;14.15;;;9.88;;
19312;SDS011;9791;50.820;4.406;2022-11-11T07:19:22;16.17;;;9.73;;
19312;SDS011;9791;50.820;4.406;2022-11-11T07:21:48;15.38;;;10.32;;
19312;SDS011;9791;50.820;4.406;2022-11-11T07:24:14;18.27;;;9.23;;
19312;SDS011;9791;50.820;4.406;2022-11-11T07:26:40;17.48;;;9.70;;
19312;SDS011;9791;50.820;4.406;2022-11-11T07:29:07;11.88;;;7.78;;
19312;SDS011;9791;50.820;4.406;2022-11-11T07:31:33;13.43;;;8.13;;
19312;SDS011;9791;50.820;4.406;2022-11-11T07:33:59;14.45;;;8.63;;
19312;SDS011;9791;50.820;4.406;2022-11-11T07:36:25;12.65;;;8.38;;
19312;SDS011;9791;50.820;4.406;2022-11-11T07:38:51;11.68;;;6.97;;
19312;SDS011;9791;50.820;4.406;2022-11-11T07:41:17;13.63;;;8.25;;
19312;SDS011;9791;50.820;4.406;2022-11-11T07:43:43;14.05;;;7.53;;
19312;SDS011;9791;50.820;4.406;2022-11-11T07:46:09;13.10;;;7.97;;
19312;SDS011;9791;50.820;4.406;2022-11-11T07:48:35;15.90;;;7.57;;
19312;SDS011;9791;50.820;4.406;2022-11-11T07:51:01;12.43;;;7.88;;
19312;SDS011;9791;50.820;4.406;2022-11-11T07:53:27;13.25;;;7.70;;
19312;SDS011;9791;50.820;4.406;2022-11-11T07:55:53;10.77;;;7.03;;
19312;SDS011;9791;50.820;4.406;2022-11-11T07:58:19;12.05;;;7.32;;
19312;SDS011;9791;50.820;4.406;2022-11-11T08:00:45;11.77;;;7.22;;
19312;SDS011;9791;50.820;4.406;2022-11-11T08:03:11;12.80;;;7.70;;
19312;SDS011;9791;50.820;4.406;2022-11-11T08:05:37;13.18;;;7.18;;
19312;SDS011;9791;50.820;4.406;2022-11-11T08:08:04;12.65;;;7.13;;
19312;SDS011;9791;50.820;4.406;2022-11-11T08:10:30;13.75;;;7.40;;
19312;SDS011;9791;50.820;4.406;2022-11-11T08:12:56;11.55;;;7.15;;
19312;SDS011;9791;50.820;4.406;2022-11-11T08:15:41;11.90;;;6.75;;
19312;SDS011;9791;50.820;4.406;2022-11-11T08:18:07;8.77;;;5.78;;
19312;SDS011;9791;50.820;4.406;2022-11-11T08:20:33;9.30;;;5.53;;
19312;SDS011;9791;50.820;4.406;2022-11-11T08:23:00;11.52;;;6.13;;
19312;SDS011;9791;50.820;4.406;2022-11-11T08:25:28;10.75;;;6.28;;
19312;SDS011;9791;50.820;4.406;2022-11-11T08:28:02;9.20;;;5.93;;
19312;SDS011;9791;50.820;4.406;2022-11-11T08:30:28;10.35;;;6.57;;
19312;SDS011;9791;50.820;4.406;2022-11-11T08:33:00;10.05;;;6.57;;
19312;SDS011;9791;50.820;4.406;2022-11-11T08:35:27;11.80;;;5.93;;
19312;SDS011;9791;50.820;4.406;2022-11-11T08:37:53;9.05;;;5.70;;
19312;SDS011;9791;50.820;4.406;2022-11-11T08:40:19;10.30;;;5.90;;
19312;SDS011;9791;50.820;4.406;2022-11-11T08:42:45;8.75;;;4.97;;
19312;SDS011;9791;50.820;4.406;2022-11-11T08:45:11;8.10;;;5.03;;
19312;SDS011;9791;50.820;4.406;2022-11-11T08:47:38;6.38;;;4.25;;
19312;SDS011;9791;50.820;4.406;2022-11-11T08:50:05;9.90;;;4.65;;
19312;SDS011;9791;50.820;4.406;2022-11-11T08:52:31;9.95;;;4.47;;
19312;SDS011;9791;50.820;4.406;2022-11-11T08:54:57;7.05;;;4.25;;
19312;SDS011;9791;50.820;4.406;2022-11-11T08:57:26;7.78;;;3.85;;
19312;SDS011;9791;50.820;4.406;2022-11-11T08:59:52;7.22;;;4.13;;
19312;SDS011;9791;50.820;4.406;2022-11-11T09:02:18;6.65;;;3.83;;
19312;SDS011;9791;50.820;4.406;2022-11-11T09:04:44;7.50;;;3.55;;
19312;SDS011;9791;50.820;4.406;2022-11-11T09:07:10;6.22;;;3.60;;
19312;SDS011;9791;50.820;4.406;2022-11-11T09:09:36;11.65;;;3.83;;
19312;SDS011;9791;50.820;4.406;2022-11-11T09:12:02;6.82;;;3.55;;
19312;SDS011;9791;50.820;4.406;2022-11-11T09:14:28;7.50;;;3.47;;
19312;SDS011;9791;50.820;4.406;2022-11-11T09:16:55;6.75;;;3.47;;
19312;SDS011;9791;50.820;4.406;2022-11-11T09:19:21;7.57;;;3.00;;
19312;SDS011;9791;50.820;4.406;2022-11-11T09:21:47;5.70;;;3.33;;
19312;SDS011;9791;50.820;4.406;2022-11-11T09:24:13;5.35;;;3.13;;
19312;SDS011;9791;50.820;4.406;2022-11-11T09:26:39;6.63;;;2.85;;
19312;SDS011;9791;50.820;4.406;2022-11-11T09:29:05;5.03;;;2.80;;
19312;SDS011;9791;50.820;4.406;2022-11-11T09:31:31;5.97;;;3.00;;
19312;SDS011;9791;50.820;4.406;2022-11-11T09:33:56;6.22;;;2.70;;
19312;SDS011;9791;50.820;4.406;2022-11-11T09:36:23;6.88;;;2.65;;
19312;SDS011;9791;50.820;4.406;2022-11-11T09:38:49;5.32;;;2.35;;
19312;SDS011;9791;50.820;4.406;2022-11-11T09:41:22;4.28;;;1.70;;
19312;SDS011;9791;50.820;4.406;2022-11-11T09:43:54;4.82;;;2.00;;
19312;SDS011;9791;50.820;4.406;2022-11-11T09:51:17;4.03;;;1.75;;
19312;SDS011;9791;50.820;4.406;2022-11-11T09:53:51;4.10;;;1.77;;
19312;SDS011;9791;50.820;4.406;2022-11-11T09:56:18;3.38;;;1.70;;
19312;SDS011;9791;50.820;4.406;2022-11-11T09:58:47;5.13;;;1.85;;
19312;SDS011;9791;50.820;4.406;2022-11-11T10:01:15;4.63;;;2.00;;
19312;SDS011;9791;50.820;4.406;2022-11-11T10:03:43;4.93;;;2.10;;
19312;SDS011;9791;50.820;4.406;2022-11-11T10:06:17;3.17;;;1.30;;
19312;SDS011;9791;50.820;4.406;2022-11-11T10:08:59;3.85;;;1.92;;
19312;SDS011;9791;50.820;4.406;2022-11-11T10:11:46;3.33;;;1.50;;
19312;SDS011;9791;50.820;4.406;2022-11-11T10:14:13;3.13;;;1.33;;
19312;SDS011;9791;50.820;4.406;2022-11-11T10:16:46;2.58;;;1.17;;
19312;SDS011;9791;50.820;4.406;2022-11-11T10:21:49;4.07;;;1.70;;
19312;SDS011;9791;50.820;4.406;2022-11-11T10:24:16;3.60;;;1.20;;
19312;SDS011;9791;50.820;4.406;2022-11-11T10:26:44;2.40;;;1.10;;
19312;SDS011;9791;50.820;4.406;2022-11-11T10:29:15;4.68;;;1.13;;
19312;SDS011;9791;50.820;4.406;2022-11-11T10:31:42;4.40;;;1.50;;
19312;SDS011;9791;50.820;4.406;2022-11-11T10:34:09;3.63;;;1.48;;
19312;SDS011;9791;50.820;4.406;2022-11-11T10:36:41;3.15;;;1.30;;
19312;SDS011;9791;50.820;4.406;2022-11-11T10:39:09;3.28;;;1.30;;
19312;SDS011;9791;50.820;4.406;2022-11-11T10:41:37;3.35;;;1.30;;
19312;SDS011;9791;50.820;4.406;2022-11-11T10:46:54;1.95;;;0.90;;
19312;SDS011;9791;50.820;4.406;2022-11-11T10:49:21;1.88;;;0.80;;
19312;SDS011;9791;50.820;4.406;2022-11-11T10:51:50;2.95;;;1.20;;
19312;SDS011;9791;50.820;4.406;2022-11-11T10:54:22;4.78;;;1.35;;
19312;SDS011;9791;50.820;4.406;2022-11-11T10:56:54;2.97;;;1.25;;
19312;SDS011;9791;50.820;4.406;2022-11-11T10:59:46;5.00;;;1.38;;
19312;SDS011;9791;50.820;4.406;2022-11-11T11:07:24;3.45;;;1.25;;
19312;SDS011;9791;50.820;4.406;2022-11-11T11:09:59;3.13;;;1.30;;
19312;SDS011;9791;50.820;4.406;2022-11-11T11:12:31;3.10;;;1.10;;
19312;SDS011;9791;50.820;4.406;2022-11-11T11:15:01;2.33;;;0.95;;
19312;SDS011;9791;50.820;4.406;2022-11-11T11:17:39;2.97;;;1.05;;
19312;SDS011;9791;50.820;4.406;2022-11-11T11:20:08;3.53;;;1.20;;
19312;SDS011;9791;50.820;4.406;2022-11-11T11:22:43;2.67;;;1.17;;
19312;SDS011;9791;50.820;4.406;2022-11-11T11:25:10;3.20;;;1.30;;
19312;SDS011;9791;50.820;4.406;2022-11-11T11:27:36;3.53;;;1.20;;
19312;SDS011;9791;50.820;4.406;2022-11-11T11:30:10;4.18;;;1.00;;
19312;SDS011;9791;50.820;4.406;2022-11-11T11:32:36;3.72;;;1.13;;
19312;SDS011;9791;50.820;4.406;2022-11-11T11:35:02;2.72;;;1.00;;
19312;SDS011;9791;50.820;4.406;2022-11-11T11:37:28;3.15;;;1.10;;
19312;SDS011;9791;50.820;4.406;2022-11-11T11:40:01;5.50;;;1.40;;
19312;SDS011;9791;50.820;4.406;2022-11-11T11:42:31;10.85;;;4.50;;
19312;SDS011;9791;50.820;4.406;2022-11-11T11:50:36;9.10;;;4.28;;
19312;SDS011;9791;50.820;4.406;2022-11-11T11:55:43;3.95;;;1.60;;
19312;SDS011;9791;50.820;4.406;2022-11-11T12:00:54;3.80;;;1.25;;
19312;SDS011;9791;50.820;4.406;2022-11-11T12:14:02;3.78;;;1.45;;
19312;SDS011;9791;50.820;4.406;2022-11-11T12:25:04;3.97;;;1.45;;
19312;SDS011;9791;50.820;4.406;2022-11-11T12:27:48;3.08;;;1.45;;
19312;SDS011;9791;50.820;4.406;2022-11-11T12:30:20;4.25;;;1.25;;
19312;SDS011;9791;50.820;4.406;2022-11-11T12:38:19;3.58;;;1.50;;
19312;SDS011;9791;50.820;4.406;2022-11-11T12:43:21;5.70;;;1.38;;
19312;SDS011;9791;50.820;4.406;2022-11-11T12:45:52;8.23;;;1.73;;
19312;SDS011;9791;50.820;4.406;2022-11-11T12:56:09;3.63;;;1.63;;
19312;SDS011;9791;50.820;4.406;2022-11-11T13:01:42;2.67;;;1.30;;
19312;SDS011;9791;50.820;4.406;2022-11-11T13:04:18;3.85;;;1.48;;
19312;SDS011;9791;50.820;4.406;2022-11-11T13:06:47;3.67;;;1.50;;
19312;SDS011;9791;50.820;4.406;2022-11-11T13:12:06;4.68;;;1.67;;
19312;SDS011;9791;50.820;4.406;2022-11-11T13:14:46;4.85;;;1.70;;
19312;SDS011;9791;50.820;4.406;2022-11-11T13:17:13;5.00;;;1.52;;
19312;SDS011;9791;50.820;4.406;2022-11-11T13:19:42;3.38;;;1.63;;
19312;SDS011;9791;50.820;4.406;2022-11-11T13:24:38;4.05;;;1.67;;
19312;SDS011;9791;50.820;4.406;2022-11-11T13:27:05;5.45;;;1.60;;
19312;SDS011;9791;50.820;4.406;2022-11-11T13:31:58;3.33;;;1.45;;
19312;SDS011;9791;50.820;4.406;2022-11-11T13:34:26;4.10;;;1.40;;
19312;SDS011;9791;50.820;4.406;2022-11-11T13:36:58;6.10;;;2.15;;
19312;SDS011;9791;50.820;4.406;2022-11-11T13:41:51;5.55;;;1.48;;
19312;SDS011;9791;50.820;4.406;2022-11-11T13:44:21;3.45;;;1.70;;
19312;SDS011;9791;50.820;4.406;2022-11-11T13:46:48;3.50;;;1.63;;
19312;SDS011;9791;50.820;4.406;2022-11-11T13:52:17;3.55;;;1.45;;
19312;SDS011;9791;50.820;4.406;2022-11-11T13:54:47;3.78;;;1.55;;
19312;SDS011;9791;50.820;4.406;2022-11-11T13:57:18;3.35;;;1.35;;
19312;SDS011;9791;50.820;4.406;2022-11-11T13:59:51;16.80;;;11.90;;
19312;SDS011;9791;50.820;4.406;2022-11-11T14:12:47;8.82;;;3.97;;
19312;SDS011;9791;50.820;4.406;2022-11-11T14:17:58;7.45;;;1.90;;
19312;SDS011;9791;50.820;4.406;2022-11-11T14:25:45;4.30;;;1.80;;
19312;SDS011;9791;50.820;4.406;2022-11-11T14:30:46;5.55;;;2.22;;
19312;SDS011;9791;50.820;4.406;2022-11-11T14:35:39;5.25;;;2.08;;
19312;SDS011;9791;50.820;4.406;2022-11-11T14:40:55;6.68;;;1.70;;
19312;SDS011;9791;50.820;4.406;2022-11-11T14:46:08;4.05;;;1.50;;
19312;SDS011;9791;50.820;4.406;2022-11-11T14:48:48;3.92;;;1.40;;
19312;SDS011;9791;50.820;4.406;2022-11-11T14:53:58;6.97;;;1.92;;
19312;SDS011;9791;50.820;4.406;2022-11-11T14:56:24;4.60;;;1.80;;
19312;SDS011;9791;50.820;4.406;2022-11-11T14:58:52;5.68;;;1.58;;
19312;SDS011;9791;50.820;4.406;2022-11-11T15:01:18;3.30;;;1.40;;
19312;SDS011;9791;50.820;4.406;2022-11-11T15:03:49;3.45;;;1.60;;
19312;SDS011;9791;50.820;4.406;2022-11-11T15:06:24;3.85;;;1.55;;
19312;SDS011;9791;50.820;4.406;2022-11-11T15:09:38;2.88;;;1.40;;
19312;SDS011;9791;50.820;4.406;2022-11-11T15:11:42;6.50;;;1.70;;
19312;SDS011;9791;50.820;4.406;2022-11-11T15:19:37;3.75;;;1.70;;
19312;SDS011;9791;50.820;4.406;2022-11-11T15:22:25;4.13;;;1.67;;
19312;SDS011;9791;50.820;4.406;2022-11-11T15:30:12;3.67;;;2.10;;
19312;SDS011;9791;50.820;4.406;2022-11-11T15:32:54;4.47;;;2.08;;
19312;SDS011;9791;50.820;4.406;2022-11-11T15:37:54;5.72;;;1.80;;
19312;SDS011;9791;50.820;4.406;2022-11-11T15:40:22;5.40;;;1.85;;
19312;SDS011;9791;50.820;4.406;2022-11-11T15:42:49;4.82;;;1.83;;
19312;SDS011;9791;50.820;4.406;2022-11-11T15:47:44;4.40;;;2.30;;
19312;SDS011;9791;50.820;4.406;2022-11-11T15:50:30;5.82;;;2.00;;
19312;SDS011;9791;50.820;4.406;2022-11-11T15:53:00;5.45;;;2.15;;
19312;SDS011;9791;50.820;4.406;2022-11-11T15:55:28;4.47;;;1.98;;
19312;SDS011;9791;50.820;4.406;2022-11-11T15:58:08;5.72;;;2.28;;
19312;SDS011;9791;50.820;4.406;2022-11-11T16:00:34;6.50;;;2.20;;
19312;SDS011;9791;50.820;4.406;2022-11-11T16:03:01;4.88;;;2.47;;
19312;SDS011;9791;50.820;4.406;2022-11-11T16:05:27;4.45;;;2.05;;
19312;SDS011;9791;50.820;4.406;2022-11-11T16:08:06;4.55;;;2.45;;
19312;SDS011;9791;50.820;4.406;2022-11-11T16:10:35;5.43;;;2.60;;
19312;SDS011;9791;50.820;4.406;2022-11-11T16:13:06;4.88;;;2.20;;
19312;SDS011;9791;50.820;4.406;2022-11-11T16:20:47;4.63;;;2.17;;
19312;SDS011;9791;50.820;4.406;2022-11-11T16:23:17;5.95;;;2.53;;
19312;SDS011;9791;50.820;4.406;2022-11-11T16:25:45;6.07;;;2.80;;
19312;SDS011;9791;50.820;4.406;2022-11-11T16:28:12;5.45;;;2.47;;
19312;SDS011;9791;50.820;4.406;2022-11-11T16:30:38;5.97;;;2.70;;
19312;SDS011;9791;50.820;4.406;2022-11-11T16:33:04;6.45;;;2.88;;
19312;SDS011;9791;50.820;4.406;2022-11-11T16:35:43;5.65;;;2.92;;
19312;SDS011;9791;50.820;4.406;2022-11-11T16:38:09;5.90;;;2.95;;
19312;SDS011;9791;50.820;4.406;2022-11-11T16:40:44;7.30;;;3.17;;
19312;SDS011;9791;50.820;4.406;2022-11-11T16:43:23;6.78;;;3.17;;
19312;SDS011;9791;50.820;4.406;2022-11-11T16:48:53;8.40;;;3.10;;
19312;SDS011;9791;50.820;4.406;2022-11-11T16:53:40;7.72;;;3.63;;
19312;SDS011;9791;50.820;4.406;2022-11-11T16:56:13;7.25;;;3.40;;
19312;SDS011;9791;50.820;4.406;2022-11-11T16:58:40;7.20;;;3.80;;
19312;SDS011;9791;50.820;4.406;2022-11-11T17:01:06;8.27;;;3.63;;
19312;SDS011;9791;50.820;4.406;2022-11-11T17:03:33;6.30;;;3.35;;
19312;SDS011;9791;50.820;4.406;2022-11-11T17:08:33;10.48;;;4.20;;
19312;SDS011;9791;50.820;4.406;2022-11-11T17:11:00;10.10;;;3.63;;
19312;SDS011;9791;50.820;4.406;2022-11-11T17:13:26;6.90;;;3.78;;
19312;SDS011;9791;50.820;4.406;2022-11-11T17:15:53;7.28;;;3.78;;
19312;SDS011;9791;50.820;4.406;2022-11-11T17:18:19;7.03;;;3.58;;
19312;SDS011;9791;50.820;4.406;2022-11-11T17:20:46;7.32;;;3.63;;
19312;SDS011;9791;50.820;4.406;2022-11-11T17:23:12;7.28;;;3.85;;
19312;SDS011;9791;50.820;4.406;2022-11-11T17:25:38;7.10;;;3.55;;
19312;SDS011;9791;50.820;4.406;2022-11-11T17:28:04;7.13;;;3.70;;
19312;SDS011;9791;50.820;4.406;2022-11-11T17:30:30;6.97;;;3.83;;
19312;SDS011;9791;50.820;4.406;2022-11-11T17:32:56;7.35;;;3.50;;